Time;durP1;ratioP1;P1;durP2;ratioP2;P2;SDS_P1;SDS_P2;PMS_P1;PMS_P2;Temp;Humidity;BMP_temperature;BMP_pressure;BME280_temperature;BME280_humidity;BME280_pressure;Samples;Min_cycle;Max_cycle;Signal;HPM_P1;HPM_P2
2022/09/01 00:02:19;;;;;;;3.25;2.10;;;;;;;;;;8280319;28;20102;-70
2022/09/01 00:06:23;;;;;;;2.28;2.13;;;;;;;;;;8283053;28;20134;-70
2022/09/01 00:10:23;;;;;;;2.40;2.20;;;;;;;;;;8281198;28;20044;-70
2022/09/01 00:14:25;;;;;;;4.10;2.50;;;;;;;;;;8282452;28;20064;-71
2022/09/01 00:18:25;;;;;;;2.40;2.20;;;;;;;;;;8280218;28;20056;-70
2022/09/01 00:22:25;;;;;;;2.67;2.20;;;;;;;;;;8280498;28;20116;-70
2022/09/01 00:26:26;;;;;;;2.33;2.10;;;;;;;;;;8282440;28;20095;-70
2022/09/01 00:30:26;;;;;;;5.10;2.17;;;;;;;;;;8281428;28;20042;-70
2022/09/01 00:34:26;;;;;;;3.55;2.33;;;;;;;;;;8282590;28;20100;-70
2022/09/01 00:38:26;;;;;;;2.30;2.10;;;;;;;;;;8281710;28;20033;-69
2022/09/01 00:42:27;;;;;;;2.80;2.17;;;;;;;;;;8283352;28;20053;-70
2022/09/01 00:46:28;;;;;;;2.50;2.10;;;;;;;;;;8272211;28;20069;-70
2022/09/01 00:50:29;;;;;;;2.40;2.20;;;;;;;;;;8283918;28;20622;-70
2022/09/01 00:54:34;;;;;;;4.45;2.28;;;;;;;;;;8283053;28;20171;-70
2022/09/01 00:58:36;;;;;;;2.13;2.03;;;;;;;;;;8283731;28;20314;-69
2022/09/01 01:02:37;;;;;;;4.53;2.30;;;;;;;;;;8279874;28;20038;-69
2022/09/01 01:06:39;;;;;;;3.38;2.50;;;;;;;;;;8282762;28;20022;-70
2022/09/01 01:10:40;;;;;;;2.67;2.20;;;;;;;;;;8280813;28;20953;-70
2022/09/01 01:14:41;;;;;;;2.30;2.10;;;;;;;;;;8280580;28;20065;-70
2022/09/01 01:18:41;;;;;;;4.20;2.30;;;;;;;;;;8281380;28;20076;-70
2022/09/01 01:27:04;;;;;;;2.85;2.20;;;;;;;;;;8282954;28;20037;-70
2022/09/01 01:31:12;;;;;;;2.30;1.92;;;;;;;;;;8286544;28;20842;-70
2022/09/01 01:35:14;;;;;;;2.00;1.90;;;;;;;;;;8286973;28;20132;-70
2022/09/01 01:39:16;;;;;;;1.95;1.75;;;;;;;;;;8288044;28;20486;-70
2022/09/01 01:43:20;;;;;;;2.03;1.80;;;;;;;;;;8287720;28;20025;-70
2022/09/01 01:47:20;;;;;;;1.90;1.80;;;;;;;;;;8288411;28;20041;-70
2022/09/01 01:51:26;;;;;;;2.43;1.90;;;;;;;;;;8288156;28;20025;-70
2022/09/01 01:55:29;;;;;;;2.22;2.03;;;;;;;;;;8288107;28;21052;-70
2022/09/01 01:59:32;;;;;;;3.45;2.00;;;;;;;;;;8263905;28;20040;-70
2022/09/01 02:03:37;;;;;;;5.10;2.08;;;;;;;;;;8285924;28;20089;-70
2022/09/01 02:07:41;;;;;;;4.57;2.10;;;;;;;;;;8278952;28;20026;-70
2022/09/01 02:11:42;;;;;;;2.85;1.85;;;;;;;;;;8286008;28;20026;-69
2022/09/01 02:15:46;;;;;;;2.30;1.80;;;;;;;;;;8284624;28;20033;-70
2022/09/01 02:19:47;;;;;;;1.60;1.50;;;;;;;;;;8286139;28;20171;-70
2022/09/01 02:23:48;;;;;;;2.08;1.58;;;;;;;;;;8282350;28;20148;-70
2022/09/01 02:27:52;;;;;;;1.70;1.60;;;;;;;;;;8285455;28;20034;-69
2022/09/01 02:31:52;;;;;;;3.40;1.52;;;;;;;;;;8283337;28;20041;-70
2022/09/01 02:35:57;;;;;;;1.60;1.50;;;;;;;;;;8285481;28;20026;-70
2022/09/01 02:39:58;;;;;;;1.85;1.52;;;;;;;;;;8286684;28;20021;-70
2022/09/01 02:44:01;;;;;;;1.90;1.70;;;;;;;;;;8282770;28;21105;-69
2022/09/01 02:48:01;;;;;;;1.80;1.70;;;;;;;;;;8274470;28;20144;-70
2022/09/01 02:52:03;;;;;;;3.27;1.40;;;;;;;;;;8283765;28;20061;-70
2022/09/01 02:56:08;;;;;;;1.98;1.77;;;;;;;;;;8285564;28;20026;-70
2022/09/01 03:00:19;;;;;;;2.85;1.60;;;;;;;;;;8283542;28;20052;-69
2022/09/01 03:04:21;;;;;;;1.50;1.40;;;;;;;;;;8283818;28;20021;-70
2022/09/01 03:08:22;;;;;;;1.60;1.50;;;;;;;;;;8284198;28;20036;-70
2022/09/01 03:12:22;;;;;;;4.03;1.70;;;;;;;;;;8284408;28;20079;-70
2022/09/01 03:16:23;;;;;;;4.18;1.58;;;;;;;;;;8283835;28;20037;-70
2022/09/01 03:20:23;;;;;;;1.40;1.30;;;;;;;;;;8281969;28;20026;-70
2022/09/01 03:24:23;;;;;;;2.70;1.30;;;;;;;;;;8284764;28;20045;-70
2022/09/01 03:28:24;;;;;;;1.52;1.42;;;;;;;;;;8282633;28;20088;-70
2022/09/01 03:32:24;;;;;;;3.05;1.45;;;;;;;;;;8283400;28;20123;-70
2022/09/01 03:36:26;;;;;;;6.05;1.52;;;;;;;;;;8284551;28;20030;-70
2022/09/01 03:40:28;;;;;;;2.00;1.35;;;;;;;;;;8283875;28;20994;-70
2022/09/01 03:44:28;;;;;;;1.85;1.42;;;;;;;;;;8284998;28;20029;-70
2022/09/01 03:48:30;;;;;;;4.80;1.60;;;;;;;;;;8281896;28;20045;-70
2022/09/01 03:52:30;;;;;;;2.30;1.58;;;;;;;;;;8282187;28;20713;-70
2022/09/01 03:56:30;;;;;;;1.42;1.33;;;;;;;;;;8284481;28;20025;-70
2022/09/01 04:00:36;;;;;;;2.35;1.50;;;;;;;;;;8282406;28;20315;-70
2022/09/01 04:04:36;;;;;;;1.40;1.30;;;;;;;;;;8283933;28;20030;-70
2022/09/01 04:08:36;;;;;;;1.70;1.60;;;;;;;;;;8284008;28;20029;-70
2022/09/01 04:12:37;;;;;;;2.03;1.40;;;;;;;;;;8280439;28;20025;-69
2022/09/01 04:20:58;;;;;;;1.50;1.40;;;;;;;;;;8281335;28;20384;-70
2022/09/01 04:24:58;;;;;;;1.67;1.58;;;;;;;;;;8281883;28;20997;-70
2022/09/01 04:28:59;;;;;;;2.10;1.60;;;;;;;;;;8267077;28;20083;-70
2022/09/01 04:32:59;;;;;;;3.63;1.67;;;;;;;;;;8280088;28;20283;-70
2022/09/01 04:36:59;;;;;;;2.80;1.67;;;;;;;;;;8282061;28;20022;-70
2022/09/01 04:41:02;;;;;;;1.63;1.40;;;;;;;;;;8268394;28;20060;-70
2022/09/01 04:45:02;;;;;;;3.50;1.65;;;;;;;;;;8282143;28;20029;-70
2022/09/01 04:49:08;;;;;;;5.37;1.50;;;;;;;;;;8280444;28;20433;-70
2022/09/01 04:53:10;;;;;;;1.63;1.30;;;;;;;;;;8281638;28;21047;-70
2022/09/01 04:57:11;;;;;;;2.10;1.48;;;;;;;;;;8283320;28;20028;-70
2022/09/01 05:01:16;;;;;;;1.70;1.60;;;;;;;;;;8271835;28;20034;-71
2022/09/01 05:05:17;;;;;;;3.55;1.45;;;;;;;;;;8286309;28;20589;-70
2022/09/01 05:09:17;;;;;;;4.82;1.50;;;;;;;;;;8288654;28;20087;-70
2022/09/01 05:13:18;;;;;;;3.20;1.60;;;;;;;;;;8289040;28;20051;-70
2022/09/01 05:17:20;;;;;;;1.77;1.67;;;;;;;;;;8286619;28;20183;-70
2022/09/01 05:21:23;;;;;;;1.70;1.60;;;;;;;;;;8287637;28;20025;-71
2022/09/01 05:25:24;;;;;;;2.37;1.70;;;;;;;;;;8289016;28;20078;-70
2022/09/01 05:29:26;;;;;;;2.83;1.70;;;;;;;;;;8287322;28;20265;-70
2022/09/01 05:33:26;;;;;;;3.30;1.80;;;;;;;;;;8286613;28;20065;-70
2022/09/01 05:37:29;;;;;;;2.22;1.60;;;;;;;;;;8288246;28;20137;-70
2022/09/01 05:41:29;;;;;;;1.52;1.42;;;;;;;;;;8287823;28;20060;-71
2022/09/01 05:45:30;;;;;;;2.10;1.45;;;;;;;;;;8286561;28;20873;-71
2022/09/01 05:49:31;;;;;;;1.90;1.35;;;;;;;;;;8287048;28;20021;-71
2022/09/01 05:53:32;;;;;;;1.85;1.60;;;;;;;;;;8287793;28;20037;-71
2022/09/01 05:57:34;;;;;;;2.22;1.85;;;;;;;;;;8288512;28;20017;-71
2022/09/01 06:01:38;;;;;;;2.80;1.65;;;;;;;;;;8286292;28;20033;-71
2022/09/01 06:05:38;;;;;;;7.03;2.22;;;;;;;;;;8276022;28;20574;-71
2022/09/01 06:09:40;;;;;;;2.17;1.50;;;;;;;;;;8278835;28;20762;-71
2022/09/01 06:13:40;;;;;;;6.05;1.67;;;;;;;;;;8286413;28;20036;-71
2022/09/01 06:17:42;;;;;;;2.03;1.70;;;;;;;;;;8285790;28;20120;-71
2022/09/01 06:21:42;;;;;;;2.78;1.65;;;;;;;;;;8284754;28;20088;-72
2022/09/01 06:25:45;;;;;;;3.78;1.70;;;;;;;;;;8286817;28;20037;-72
2022/09/01 06:29:52;;;;;;;3.50;1.87;;;;;;;;;;8286375;28;20040;-71
2022/09/01 06:33:54;;;;;;;1.80;1.65;;;;;;;;;;8283680;28;20040;-71
2022/09/01 06:37:55;;;;;;;1.80;1.67;;;;;;;;;;8285291;28;20029;-71
2022/09/01 06:41:56;;;;;;;2.88;1.58;;;;;;;;;;8284435;28;20128;-71
2022/09/01 06:46:00;;;;;;;4.05;1.80;;;;;;;;;;8283585;28;20037;-71
2022/09/01 06:50:00;;;;;;;2.90;1.70;;;;;;;;;;8283137;28;20071;-71
2022/09/01 06:54:00;;;;;;;1.92;1.73;;;;;;;;;;8284171;28;20113;-71
2022/09/01 06:58:04;;;;;;;2.25;1.70;;;;;;;;;;8274179;28;20099;-70
2022/09/01 07:02:05;;;;;;;2.58;2.15;;;;;;;;;;8269246;28;20062;-71
2022/09/01 07:06:06;;;;;;;2.20;1.75;;;;;;;;;;8283762;28;20373;-72
2022/09/01 07:10:06;;;;;;;2.80;1.92;;;;;;;;;;8284836;28;20549;-72
2022/09/01 07:14:06;;;;;;;3.70;1.52;;;;;;;;;;8284072;28;20668;-72
2022/09/01 07:18:06;;;;;;;1.88;1.77;;;;;;;;;;8283991;28;20419;-71
2022/09/01 07:22:07;;;;;;;3.25;2.00;;;;;;;;;;8283405;28;20450;-72
2022/09/01 07:26:07;;;;;;;3.17;1.75;;;;;;;;;;8273799;28;20018;-72
2022/09/01 07:30:08;;;;;;;6.30;2.10;;;;;;;;;;8281193;28;20025;-72
2022/09/01 07:34:11;;;;;;;1.98;1.80;;;;;;;;;;8284419;28;20306;-72
2022/09/01 07:38:12;;;;;;;4.53;1.90;;;;;;;;;;8274591;28;20021;-72
2022/09/01 07:42:15;;;;;;;1.80;1.70;;;;;;;;;;8281439;28;20076;-72
2022/09/01 07:46:17;;;;;;;3.10;1.90;;;;;;;;;;8282780;28;20046;-72
2022/09/01 07:50:19;;;;;;;5.50;2.00;;;;;;;;;;8281710;28;20124;-72
2022/09/01 07:54:22;;;;;;;5.07;1.95;;;;;;;;;;8286071;28;20026;-72
2022/09/01 07:58:22;;;;;;;;;;;;;;;;;;8283628;28;20071;-72
2022/09/01 08:02:23;;;;;;;2.70;2.00;;;;;;;;;;8266237;28;20062;-72
2022/09/01 08:06:25;;;;;;;3.47;1.95;;;;;;;;;;8282372;28;20018;-71
2022/09/01 08:10:25;;;;;;;2.95;2.10;;;;;;;;;;8283495;28;20032;-72
2022/09/01 08:14:25;;;;;;;3.20;1.70;;;;;;;;;;8282814;28;20025;-72
2022/09/01 08:18:26;;;;;;;4.32;2.20;;;;;;;;;;8267645;28;20092;-72
2022/09/01 08:22:26;;;;;;;2.25;2.05;;;;;;;;;;8282982;28;20035;-72
2022/09/01 08:26:26;;;;;;;2.93;2.10;;;;;;;;;;8280862;28;20033;-72
2022/09/01 08:30:27;;;;;;;2.53;2.23;;;;;;;;;;8280705;28;20037;-72
2022/09/01 08:34:27;;;;;;;5.22;2.00;;;;;;;;;;8264688;28;20357;-72
2022/09/01 08:38:28;;;;;;;3.78;2.10;;;;;;;;;;8284135;28;20037;-72
2022/09/01 08:42:31;;;;;;;2.60;2.40;;;;;;;;;;8290004;28;20718;-72
2022/09/01 08:46:36;;;;;;;4.07;2.42;;;;;;;;;;8286935;28;20491;-72
2022/09/01 08:50:36;;;;;;;7.65;2.65;;;;;;;;;;8288834;28;20534;-72
2022/09/01 08:54:55;;;;;;;2.75;2.15;;;;;;;;;;8287880;28;20037;-73
2022/09/01 08:58:56;;;;;;;6.07;2.30;;;;;;;;;;8289384;28;20488;-72
2022/09/01 09:02:57;;;;;;;3.58;2.67;;;;;;;;;;8286207;28;20358;-71
2022/09/01 09:06:57;;;;;;;3.42;2.33;;;;;;;;;;8290668;28;20031;-71
2022/09/01 09:10:59;;;;;;;3.08;2.22;;;;;;;;;;8287369;28;20017;-70
2022/09/01 09:15:14;;;;;;;3.45;2.53;;;;;;;;;;8287781;28;20995;-71
2022/09/01 09:19:18;;;;;;;3.47;2.20;;;;;;;;;;8287042;28;21003;-71
2022/09/01 09:23:27;;;;;;;3.53;2.33;;;;;;;;;;8286192;28;20398;-71
2022/09/01 09:27:38;;;;;;;3.15;2.85;;;;;;;;;;8286956;28;20872;-70
2022/09/01 09:31:42;;;;;;;2.97;2.58;;;;;;;;;;8281952;28;20038;-70
2022/09/01 09:35:44;;;;;;;3.97;2.47;;;;;;;;;;8283000;28;20017;-70
2022/09/01 09:39:44;;;;;;;2.90;2.13;;;;;;;;;;8283996;28;20986;-70
2022/09/01 09:43:50;;;;;;;3.17;2.87;;;;;;;;;;8287463;28;20026;-75
2022/09/01 09:47:51;;;;;;;2.67;2.40;;;;;;;;;;8277597;28;20041;-76
2022/09/01 09:51:56;;;;;;;4.05;2.80;;;;;;;;;;8289722;28;20041;-75
2022/09/01 09:55:58;;;;;;;2.80;2.58;;;;;;;;;;8278452;28;20029;-76
2022/09/01 10:00:08;;;;;;;2.58;2.30;;;;;;;;;;8283873;28;20033;-77
2022/09/01 10:04:08;;;;;;;2.60;2.40;;;;;;;;;;8292755;28;20042;-77
2022/09/01 10:08:36;;;;;;;4.35;2.72;;;;;;;;;;8293327;28;20586;-76
2022/09/01 10:12:36;;;;;;;4.15;2.67;;;;;;;;;;8293967;28;20051;-76
2022/09/01 10:16:38;;;;;;;4.20;2.65;;;;;;;;;;8279449;28;20061;-76
2022/09/01 10:20:43;;;;;;;4.30;2.92;;;;;;;;;;8272290;28;20021;-77
2022/09/01 10:24:43;;;;;;;4.78;2.47;;;;;;;;;;8287710;28;20036;-76
2022/09/01 10:28:51;;;;;;;3.78;2.60;;;;;;;;;;8278809;28;20132;-71
2022/09/01 10:32:56;;;;;;;3.03;2.83;;;;;;;;;;8279992;28;20049;-72
2022/09/01 10:36:56;;;;;;;2.58;2.38;;;;;;;;;;8269619;28;20083;-72
2022/09/01 10:41:07;;;;;;;4.72;2.63;;;;;;;;;;8281766;28;20094;-72
2022/09/01 10:45:38;;;;;;;4.07;2.60;;;;;;;;;;8280900;28;20116;-72
2022/09/01 10:49:44;;;;;;;3.63;2.72;;;;;;;;;;8266577;28;20088;-72
2022/09/01 10:53:45;;;;;;;3.80;2.50;;;;;;;;;;8279367;28;20091;-72
2022/09/01 10:58:03;;;;;;;2.65;2.38;;;;;;;;;;8281586;28;20951;-71
2022/09/01 11:02:09;;;;;;;3.50;3.00;;;;;;;;;;8280076;28;20044;-71
2022/09/01 11:06:09;;;;;;;5.95;2.90;;;;;;;;;;8282949;28;20033;-72
2022/09/01 11:10:18;;;;;;;6.85;2.72;;;;;;;;;;8282715;28;20331;-71
2022/09/01 11:14:21;;;;;;;2.97;2.75;;;;;;;;;;8281871;28;20033;-72
2022/09/01 11:18:21;;;;;;;;;;;;;;;;;;8283619;28;20046;-72
2022/09/01 11:22:22;;;;;;;3.55;2.42;;;;;;;;;;8280904;28;20357;-71
2022/09/01 11:26:31;;;;;;;2.90;2.47;;;;;;;;;;8281338;28;20115;-72
2022/09/01 11:30:40;;;;;;;3.72;2.20;;;;;;;;;;8266243;28;20879;-72
2022/09/01 11:34:41;;;;;;;2.60;2.40;;;;;;;;;;8284062;28;20029;-71
2022/09/01 11:38:50;;;;;;;3.70;2.38;;;;;;;;;;8271519;28;20040;-72
2022/09/01 11:42:53;;;;;;;2.75;2.35;;;;;;;;;;8280588;28;20060;-72
2022/09/01 11:46:57;;;;;;;2.80;2.58;;;;;;;;;;8271685;28;20038;-71
2022/09/01 11:51:01;;;;;;;4.28;2.47;;;;;;;;;;8283164;28;20021;-72
2022/09/01 11:55:03;;;;;;;4.22;2.35;;;;;;;;;;8281033;28;20069;-71
2022/09/01 11:59:03;;;;;;;4.00;2.28;;;;;;;;;;8279416;28;20029;-71
2022/09/01 12:03:21;;;;;;;3.50;1.83;;;;;;;;;;8278724;28;20070;-72
2022/09/01 12:07:40;;;;;;;2.63;2.42;;;;;;;;;;8280863;28;20033;-72
2022/09/01 12:11:40;;;;;;;2.28;2.08;;;;;;;;;;8278841;28;20048;-72
2022/09/01 12:15:41;;;;;;;3.45;2.15;;;;;;;;;;8264497;28;20045;-71
2022/09/01 12:19:41;;;;;;;4.78;2.40;;;;;;;;;;8280375;28;20020;-71
2022/09/01 12:23:44;;;;;;;1.87;1.77;;;;;;;;;;8264222;28;20032;-72
2022/09/01 12:27:44;;;;;;;3.08;1.90;;;;;;;;;;8268413;28;20028;-72
2022/09/01 12:31:47;;;;;;;2.05;1.92;;;;;;;;;;8279051;28;20160;-72
2022/09/01 12:35:47;;;;;;;4.37;2.07;;;;;;;;;;8280219;28;20025;-72
2022/09/01 12:39:49;;;;;;;2.00;1.90;;;;;;;;;;8279175;28;20102;-72
2022/09/01 12:43:49;;;;;;;1.70;1.60;;;;;;;;;;8281034;28;21221;-72
2022/09/01 12:47:49;;;;;;;4.03;2.13;;;;;;;;;;8278617;28;20030;-72
2022/09/01 12:52:25;;;;;;;2.80;1.93;;;;;;;;;;8277636;28;20478;-72
2022/09/01 12:56:29;;;;;;;1.92;1.83;;;;;;;;;;8189081;28;20751;-72
2022/09/01 13:00:31;;;;;;;2.88;2.03;;;;;;;;;;8279107;28;20072;-71
2022/09/01 13:04:32;;;;;;;2.28;1.75;;;;;;;;;;8278384;28;20034;-72
2022/09/01 13:08:33;;;;;;;4.25;1.90;;;;;;;;;;8281208;28;20030;-72
2022/09/01 13:12:39;;;;;;;2.08;1.95;;;;;;;;;;8280157;28;20021;-71
2022/09/01 13:16:39;;;;;;;3.00;2.00;;;;;;;;;;8278256;28;20053;-71
2022/09/01 13:20:40;;;;;;;2.70;2.00;;;;;;;;;;8277323;28;20021;-71
2022/09/01 13:24:41;;;;;;;3.88;2.08;;;;;;;;;;8283792;28;20054;-72
2022/09/01 13:28:41;;;;;;;2.53;1.92;;;;;;;;;;8286263;28;20025;-72
2022/09/01 13:32:43;;;;;;;5.83;1.83;;;;;;;;;;8284058;28;20037;-72
2022/09/01 13:36:43;;;;;;;8.60;1.93;;;;;;;;;;8285470;28;20750;-72
2022/09/01 13:40:45;;;;;;;2.55;1.60;;;;;;;;;;8284780;28;20061;-72
2022/09/01 13:44:46;;;;;;;3.10;1.90;;;;;;;;;;8287296;28;20024;-72
2022/09/01 13:48:46;;;;;;;2.72;1.70;;;;;;;;;;8288031;28;20029;-72
2022/09/01 13:52:48;;;;;;;4.50;1.43;;;;;;;;;;8287181;28;20083;-72
2022/09/01 13:56:48;;;;;;;3.20;1.95;;;;;;;;;;8286722;28;20291;-72
2022/09/01 14:00:49;;;;;;;2.00;1.52;;;;;;;;;;8284488;28;20034;-72
2022/09/01 14:04:50;;;;;;;2.60;1.88;;;;;;;;;;8288893;28;20025;-72
2022/09/01 14:08:50;;;;;;;3.75;1.90;;;;;;;;;;8284804;28;20017;-72
2022/09/01 14:12:51;;;;;;;3.33;1.70;;;;;;;;;;8270466;28;20188;-72
2022/09/01 14:16:51;;;;;;;1.95;1.83;;;;;;;;;;8282200;28;20045;-71
2022/09/01 14:20:51;;;;;;;4.25;1.60;;;;;;;;;;8269290;28;20546;-71
2022/09/01 14:24:52;;;;;;;2.42;1.75;;;;;;;;;;8284264;28;20033;-72
2022/09/01 14:28:53;;;;;;;4.82;1.65;;;;;;;;;;8283233;28;20029;-72
2022/09/01 14:32:54;;;;;;;2.00;1.80;;;;;;;;;;8268203;28;20034;-71
2022/09/01 14:36:56;;;;;;;1.65;1.48;;;;;;;;;;8272313;28;20036;-72
2022/09/01 14:40:56;;;;;;;1.73;1.63;;;;;;;;;;8282026;28;20421;-72
2022/09/01 14:44:57;;;;;;;2.83;1.60;;;;;;;;;;8282911;28;20418;-72
2022/09/01 14:48:57;;;;;;;2.55;1.40;;;;;;;;;;8282301;28;20037;-72
2022/09/01 14:52:59;;;;;;;4.43;2.10;;;;;;;;;;8271819;28;20910;-72
2022/09/01 14:57:00;;;;;;;2.10;1.90;;;;;;;;;;8284185;28;20026;-72
2022/09/01 15:01:00;;;;;;;2.40;1.90;;;;;;;;;;8280129;28;20029;-72
2022/09/01 15:05:00;;;;;;;2.15;1.73;;;;;;;;;;8282364;28;20022;-72
2022/09/01 15:09:02;;;;;;;2.83;1.70;;;;;;;;;;8282620;28;20033;-72
2022/09/01 15:13:02;;;;;;;3.35;1.90;;;;;;;;;;8270173;28;20026;-72
2022/09/01 15:17:03;;;;;;;2.80;1.95;;;;;;;;;;8283011;28;20124;-72
2022/09/01 15:21:04;;;;;;;2.55;1.83;;;;;;;;;;8279966;28;20029;-72
2022/09/01 15:25:04;;;;;;;2.13;1.90;;;;;;;;;;8280714;28;20021;-72
2022/09/01 15:29:05;;;;;;;1.75;1.55;;;;;;;;;;8282914;28;20018;-72
2022/09/01 15:33:06;;;;;;;1.65;1.55;;;;;;;;;;8279943;28;20034;-72
2022/09/01 15:37:07;;;;;;;3.35;1.63;;;;;;;;;;8281480;28;20029;-72
2022/09/01 15:41:08;;;;;;;1.70;1.60;;;;;;;;;;8280209;28;20040;-72
2022/09/01 15:45:10;;;;;;;2.63;1.70;;;;;;;;;;8281133;28;20026;-72
2022/09/01 15:49:10;;;;;;;2.42;1.70;;;;;;;;;;8279230;28;20101;-72
2022/09/01 15:53:12;;;;;;;1.70;1.60;;;;;;;;;;8281314;28;20033;-72
2022/09/01 15:57:12;;;;;;;1.67;1.58;;;;;;;;;;8279197;28;20029;-72
2022/09/01 16:01:12;;;;;;;2.17;1.53;;;;;;;;;;8281578;28;20033;-72
2022/09/01 16:05:13;;;;;;;3.97;1.63;;;;;;;;;;8267829;28;20291;-72
2022/09/01 16:09:13;;;;;;;2.42;1.80;;;;;;;;;;8271610;28;20355;-72
2022/09/01 16:13:13;;;;;;;1.90;1.73;;;;;;;;;;8280450;28;20533;-72
2022/09/01 16:17:23;;;;;;;1.57;1.47;;;;;;;;;;8268734;28;20088;-72
2022/09/01 16:21:31;;;;;;;3.05;1.60;;;;;;;;;;8279263;28;21074;-72
2022/09/01 16:25:32;;;;;;;2.55;1.40;;;;;;;;;;8279508;28;21021;-72
2022/09/01 16:29:32;;;;;;;3.13;1.70;;;;;;;;;;8280182;28;20021;-72
2022/09/01 16:33:33;;;;;;;4.57;1.60;;;;;;;;;;8280351;28;20870;-72
2022/09/01 16:37:39;;;;;;;4.97;1.60;;;;;;;;;;8281561;28;20107;-72
2022/09/01 16:41:58;;;;;;;1.90;1.80;;;;;;;;;;8280740;28;20374;-71
2022/09/01 16:46:08;;;;;;;1.70;1.60;;;;;;;;;;8279860;28;20042;-71
2022/09/01 16:50:27;;;;;;;1.52;1.40;;;;;;;;;;8277718;28;20045;-72
2022/09/01 16:54:53;;;;;;;1.70;1.60;;;;;;;;;;8280869;28;20033;-72
2022/09/01 16:59:12;;;;;;;2.72;1.70;;;;;;;;;;8253697;28;20069;-72
2022/09/01 17:03:13;;;;;;;1.60;1.50;;;;;;;;;;8283503;28;20025;-71
2022/09/01 17:07:15;;;;;;;1.50;1.40;;;;;;;;;;8287190;28;20044;-71
2022/09/01 17:11:18;;;;;;;1.70;1.35;;;;;;;;;;8285739;28;20803;-71
2022/09/01 17:15:25;;;;;;;2.17;1.40;;;;;;;;;;8287010;28;20063;-71
2022/09/01 17:19:26;;;;;;;1.42;1.30;;;;;;;;;;8284445;28;20733;-71
2022/09/01 17:23:28;;;;;;;2.55;1.30;;;;;;;;;;8270566;28;20680;-71
2022/09/01 17:27:36;;;;;;;1.90;1.40;;;;;;;;;;8284728;28;20982;-71
2022/09/01 17:31:56;;;;;;;1.50;1.40;;;;;;;;;;8284133;28;20395;-71
2022/09/01 17:36:05;;;;;;;1.33;1.23;;;;;;;;;;8284103;28;20029;-71
2022/09/01 17:40:14;;;;;;;2.20;1.45;;;;;;;;;;8284449;28;20025;-72
2022/09/01 17:44:39;;;;;;;1.50;1.40;;;;;;;;;;8284715;28;20134;-71
2022/09/01 17:48:42;;;;;;;1.30;1.20;;;;;;;;;;8275187;28;20036;-71
2022/09/01 17:53:01;;;;;;;2.28;1.10;;;;;;;;;;8284659;28;20029;-71
2022/09/01 17:57:04;;;;;;;3.95;1.50;;;;;;;;;;8270492;28;20095;-71
2022/09/01 18:01:08;;;;;;;5.93;1.50;;;;;;;;;;8268722;28;20038;-72
2022/09/01 18:05:13;;;;;;;3.10;1.27;;;;;;;;;;8285410;28;20061;-72
2022/09/01 18:09:15;;;;;;;1.60;1.50;;;;;;;;;;8281988;28;20035;-72
2022/09/01 18:13:27;;;;;;;4.28;1.40;;;;;;;;;;8273080;28;20061;-72
2022/09/01 18:17:30;;;;;;;3.42;1.58;;;;;;;;;;8268353;28;20608;-72
2022/09/01 18:21:35;;;;;;;2.30;1.60;;;;;;;;;;8281725;28;20105;-71
2022/09/01 18:25:41;;;;;;;3.08;1.58;;;;;;;;;;8269635;28;20017;-72
2022/09/01 18:29:43;;;;;;;1.65;1.38;;;;;;;;;;8283209;28;20489;-71
2022/09/01 18:34:01;;;;;;;5.88;1.92;;;;;;;;;;8281566;28;20037;-71
2022/09/01 18:38:07;;;;;;;1.70;1.60;;;;;;;;;;8282084;28;20028;-70
2022/09/01 18:42:28;;;;;;;2.22;1.50;;;;;;;;;;8282023;28;20504;-70
2022/09/01 18:46:53;;;;;;;4.30;1.75;;;;;;;;;;8268849;28;20119;-71
2022/09/01 18:51:01;;;;;;;1.70;1.60;;;;;;;;;;8265556;28;20029;-72
2022/09/01 18:55:02;;;;;;;3.90;2.00;;;;;;;;;;8282239;28;20116;-70
2022/09/01 18:59:03;;;;;;;3.10;1.88;;;;;;;;;;8282486;28;20053;-70
2022/09/01 19:03:06;;;;;;;2.40;1.80;;;;;;;;;;8281061;28;20033;-70
2022/09/01 19:07:30;;;;;;;4.03;1.60;;;;;;;;;;8267700;28;20033;-70
2022/09/01 19:11:58;;;;;;;3.05;1.73;;;;;;;;;;8280295;28;20505;-71
2022/09/01 19:16:01;;;;;;;1.60;1.48;;;;;;;;;;8279769;28;20033;-70
2022/09/01 19:20:17;;;;;;;2.80;1.80;;;;;;;;;;8282454;28;20014;-71
2022/09/01 19:24:29;;;;;;;1.77;1.63;;;;;;;;;;8271724;28;20040;-71
2022/09/01 19:28:42;;;;;;;2.08;1.83;;;;;;;;;;8281087;28;20530;-71
2022/09/01 19:32:43;;;;;;;3.50;2.10;;;;;;;;;;8266123;28;20034;-70
2022/09/01 19:36:58;;;;;;;2.47;2.00;;;;;;;;;;8281076;28;20677;-70
2022/09/01 19:41:07;;;;;;;2.88;1.90;;;;;;;;;;8281430;28;20057;-71
2022/09/01 19:45:19;;;;;;;5.03;2.10;;;;;;;;;;8265586;28;20437;-71
2022/09/01 19:49:25;;;;;;;2.38;1.90;;;;;;;;;;8279762;28;20018;-70
2022/09/01 19:53:28;;;;;;;2.35;1.80;;;;;;;;;;8279389;28;20025;-70
2022/09/01 19:57:36;;;;;;;4.85;1.80;;;;;;;;;;8267221;28;20233;-70
2022/09/01 20:01:36;;;;;;;2.22;1.90;;;;;;;;;;8279877;28;20088;-71
2022/09/01 20:05:46;;;;;;;3.28;2.17;;;;;;;;;;8280318;28;20028;-70
2022/09/01 20:09:55;;;;;;;2.03;1.80;;;;;;;;;;8279140;28;20031;-70
2022/09/01 20:14:14;;;;;;;1.92;1.83;;;;;;;;;;8270023;28;20036;-70
2022/09/01 20:18:23;;;;;;;2.15;1.83;;;;;;;;;;8266579;28;20438;-70
2022/09/01 20:22:39;;;;;;;2.35;2.15;;;;;;;;;;8277757;28;20029;-70
2022/09/01 20:26:45;;;;;;;1.65;1.55;;;;;;;;;;8281473;28;20095;-70
2022/09/01 20:30:49;;;;;;;3.63;1.70;;;;;;;;;;8280169;28;20907;-70
2022/09/01 20:34:53;;;;;;;3.38;1.60;;;;;;;;;;8279705;28;20028;-70
2022/09/01 20:43:21;;;;;;;5.55;2.03;;;;;;;;;;8278620;28;20072;-71
2022/09/01 20:47:24;;;;;;;2.20;2.00;;;;;;;;;;8264397;28;20037;-70
2022/09/01 20:51:34;;;;;;;4.38;1.90;;;;;;;;;;8266673;28;21903;-71
2022/09/01 20:55:40;;;;;;;2.05;1.83;;;;;;;;;;8279126;28;20037;-70
2022/09/01 20:59:52;;;;;;;2.25;2.05;;;;;;;;;;8277402;28;20025;-70
2022/09/01 21:03:58;;;;;;;2.58;1.92;;;;;;;;;;8278763;28;20778;-70
2022/09/01 21:07:59;;;;;;;2.92;1.95;;;;;;;;;;8279492;28;20026;-71
2022/09/01 21:12:02;;;;;;;2.33;1.80;;;;;;;;;;8280730;28;20140;-71
2022/09/01 21:16:04;;;;;;;2.00;1.80;;;;;;;;;;8268284;28;20306;-71
2022/09/01 21:20:07;;;;;;;2.08;1.98;;;;;;;;;;8276139;28;20018;-70
2022/09/01 21:24:08;;;;;;;3.15;1.70;;;;;;;;;;8278145;28;20029;-70
2022/09/01 21:28:09;;;;;;;2.03;1.80;;;;;;;;;;8280246;28;20056;-70
2022/09/01 21:32:10;;;;;;;3.92;1.90;;;;;;;;;;8279352;28;20034;-70
2022/09/01 21:36:10;;;;;;;2.28;1.80;;;;;;;;;;8276832;28;20021;-70
2022/09/01 21:40:11;;;;;;;2.47;2.00;;;;;;;;;;8280689;28;20033;-70
2022/09/01 21:44:11;;;;;;;2.65;1.92;;;;;;;;;;8268927;28;20132;-71
2022/09/01 21:48:12;;;;;;;3.08;2.00;;;;;;;;;;8288144;28;20029;-71
2022/09/01 21:52:12;;;;;;;3.83;2.08;;;;;;;;;;8286822;28;20137;-71
2022/09/01 21:56:12;;;;;;;1.80;1.70;;;;;;;;;;8289076;28;20097;-71
2022/09/01 22:00:15;;;;;;;2.13;1.98;;;;;;;;;;8286165;28;20346;-71
2022/09/01 22:04:16;;;;;;;2.05;1.60;;;;;;;;;;8281138;28;20338;-70
2022/09/01 22:08:17;;;;;;;2.70;2.10;;;;;;;;;;8284405;28;20195;-70
2022/09/01 22:12:18;;;;;;;2.38;2.00;;;;;;;;;;8285479;28;20577;-70
2022/09/01 22:16:19;;;;;;;3.13;2.10;;;;;;;;;;8286525;28;20045;-70
2022/09/01 22:20:21;;;;;;;2.45;2.25;;;;;;;;;;8288502;28;20071;-70
2022/09/01 22:24:21;;;;;;;2.05;1.85;;;;;;;;;;8285006;28;20727;-70
2022/09/01 22:28:21;;;;;;;2.90;1.93;;;;;;;;;;8288024;28;20017;-70
2022/09/01 22:32:21;;;;;;;4.53;2.13;;;;;;;;;;8281707;28;20838;-71
2022/09/01 22:36:26;;;;;;;4.70;2.05;;;;;;;;;;8286016;28;20041;-70
2022/09/01 22:40:26;;;;;;;3.55;1.90;;;;;;;;;;8284869;28;20033;-71
2022/09/01 22:44:27;;;;;;;2.13;1.90;;;;;;;;;;8286378;28;20866;-71
2022/09/01 22:48:27;;;;;;;2.65;2.33;;;;;;;;;;8284583;28;20123;-71
2022/09/01 22:52:28;;;;;;;2.15;1.92;;;;;;;;;;8285219;28;20024;-70
2022/09/01 22:56:29;;;;;;;3.22;2.08;;;;;;;;;;8269218;28;20481;-70
2022/09/01 23:00:30;;;;;;;2.13;1.70;;;;;;;;;;8283896;28;20034;-70
2022/09/01 23:04:30;;;;;;;2.10;2.00;;;;;;;;;;8274546;28;20033;-71
2022/09/01 23:08:31;;;;;;;2.10;1.90;;;;;;;;;;8287322;28;20123;-70
2022/09/01 23:12:31;;;;;;;2.10;1.90;;;;;;;;;;8285419;28;20021;-70
2022/09/01 23:16:32;;;;;;;2.00;1.90;;;;;;;;;;8284217;28;20107;-71
2022/09/01 23:20:32;;;;;;;2.30;2.10;;;;;;;;;;8284300;28;20021;-70
2022/09/01 23:24:32;;;;;;;4.07;2.10;;;;;;;;;;8285447;28;20547;-70
2022/09/01 23:28:33;;;;;;;1.90;1.80;;;;;;;;;;8284255;28;20111;-71
2022/09/01 23:32:33;;;;;;;6.40;2.10;;;;;;;;;;8283185;28;20045;-70
2022/09/01 23:36:34;;;;;;;2.25;2.05;;;;;;;;;;8283248;28;20028;-70
2022/09/01 23:40:37;;;;;;;3.85;1.90;;;;;;;;;;8285705;28;20121;-71
2022/09/01 23:44:38;;;;;;;2.00;1.90;;;;;;;;;;8282392;28;20091;-71
2022/09/01 23:48:38;;;;;;;2.15;2.03;;;;;;;;;;8283622;28;20029;-71
2022/09/01 23:52:38;;;;;;;2.20;2.00;;;;;;;;;;8284274;28;20026;-70
2022/09/01 23:56:39;;;;;;;2.50;1.90;;;;;;;;;;8285219;28;20694;-70
